createdAt,value
2018-09-10T00:00:29.232Z,4.67
2018-09-10T00:03:13.400Z,4.50
2018-09-10T00:05:56.044Z,4.80
2018-09-10T00:08:38.561Z,4.90
2018-09-10T00:11:21.977Z,4.43
2018-09-10T00:14:05.214Z,5.13
2018-09-10T00:16:47.945Z,4.80
2018-09-10T00:19:31.369Z,5.07
2018-09-10T00:22:14.028Z,4.80
2018-09-10T00:24:56.885Z,4.93
2018-09-10T00:27:39.426Z,5.17
2018-09-10T00:30:22.398Z,5.90
2018-09-10T00:33:06.420Z,5.53
2018-09-10T00:35:49.227Z,5.87
2018-09-10T00:38:31.594Z,5.60
2018-09-10T00:41:14.434Z,6.03
2018-09-10T00:43:57.437Z,5.90
2018-09-10T00:46:40.331Z,5.77
2018-09-10T00:49:22.956Z,5.60
2018-09-10T00:52:06.188Z,5.50
2018-09-10T00:54:48.884Z,5.60
2018-09-10T00:57:31.762Z,5.17
2018-09-10T01:00:14.528Z,5.63
2018-09-10T01:02:57.124Z,5.50
2018-09-10T01:05:40.101Z,6.27
2018-09-10T01:08:22.656Z,5.80
2018-09-10T01:11:05.370Z,5.47
2018-09-10T01:13:48.067Z,6.00
2018-09-10T01:16:36.980Z,5.70
2018-09-10T01:19:19.751Z,5.80
2018-09-10T01:22:02.385Z,5.70
2018-09-10T01:24:45.369Z,5.87
2018-09-10T01:27:28.666Z,6.33
2018-09-10T01:30:11.364Z,6.13
2018-09-10T01:32:54.200Z,5.70
2018-09-10T01:35:36.592Z,5.20
2018-09-10T01:38:19.542Z,5.87
2018-09-10T01:41:02.707Z,5.63
2018-09-10T01:43:45.885Z,5.80
2018-09-10T01:46:28.838Z,6.00
2018-09-10T01:49:11.753Z,5.57
2018-09-10T01:51:54.802Z,5.73
2018-09-10T01:54:37.161Z,5.80
2018-09-10T01:57:20.220Z,5.63
2018-09-10T02:00:03.047Z,6.07
2018-09-10T02:02:46.017Z,5.67
2018-09-10T02:05:28.875Z,6.30
2018-09-10T02:08:11.432Z,6.10
2018-09-10T02:10:54.336Z,5.93
2018-09-10T02:13:37.572Z,6.50
2018-09-10T02:16:20.187Z,6.17
2018-09-10T02:19:02.652Z,6.80
2018-09-10T02:21:45.178Z,6.80
2018-09-10T02:24:27.993Z,6.10
2018-09-10T02:27:10.864Z,6.00
2018-09-10T02:29:53.968Z,6.60
2018-09-10T02:32:38.090Z,6.07
2018-09-10T02:35:21.431Z,5.70
2018-09-10T02:38:04.296Z,6.20
2018-09-10T02:40:46.756Z,6.50
2018-09-10T02:43:29.571Z,7.00
2018-09-10T02:46:12.140Z,6.03
2018-09-10T02:48:55.008Z,6.20
2018-09-10T02:51:37.754Z,6.13
2018-09-10T02:54:20.454Z,6.00
2018-09-10T02:57:03.443Z,5.80
2018-09-10T02:59:46.340Z,6.33
2018-09-10T03:02:29.185Z,5.67
2018-09-10T03:05:11.985Z,6.07
2018-09-10T03:07:54.828Z,6.60
2018-09-10T03:10:38.233Z,6.20
2018-09-10T03:13:21.559Z,6.63
2018-09-10T03:16:04.564Z,6.40
2018-09-10T03:18:47.357Z,6.20
2018-09-10T03:21:30.018Z,7.03
2018-09-10T03:24:12.596Z,5.93
2018-09-10T03:26:55.279Z,6.57
2018-09-10T03:29:37.841Z,7.23
2018-09-10T03:32:21.272Z,6.70
2018-09-10T03:35:04.491Z,6.63
2018-09-10T03:37:47.193Z,6.70
2018-09-10T03:40:30.123Z,6.50
2018-09-10T03:43:13.182Z,7.23
2018-09-10T03:45:55.845Z,6.60
2018-09-10T03:48:39.158Z,6.70
2018-09-10T03:51:22.408Z,6.40
2018-09-10T03:54:05.221Z,6.67
2018-09-10T03:56:47.954Z,7.00
2018-09-10T03:59:30.759Z,7.40
2018-09-10T04:02:14.065Z,6.83
2018-09-10T04:04:56.604Z,7.20
2018-09-10T04:07:39.400Z,5.93
2018-09-10T04:10:22.403Z,6.97
2018-09-10T04:13:05.037Z,6.40
2018-09-10T04:15:47.988Z,6.83
2018-09-10T04:18:30.796Z,7.17
2018-09-10T04:21:13.517Z,6.83
2018-09-10T04:23:56.289Z,6.87
2018-09-10T04:26:38.853Z,7.20
2018-09-10T04:29:22.013Z,6.60
2018-09-10T04:32:05.323Z,5.90
2018-09-10T04:34:47.920Z,6.90
2018-09-10T04:37:30.960Z,6.50
2018-09-10T04:40:13.866Z,7.47
2018-09-10T04:42:56.664Z,6.97
2018-09-10T04:45:39.181Z,7.17
2018-09-10T04:48:22.183Z,6.23
2018-09-10T04:51:04.704Z,6.50
2018-09-10T04:53:47.194Z,5.77
2018-09-10T04:56:30.214Z,5.77
2018-09-10T04:59:13.092Z,6.07
2018-09-10T05:01:55.785Z,6.70
2018-09-10T05:04:38.716Z,5.40
2018-09-10T05:07:21.481Z,6.10
2018-09-10T05:10:04.205Z,6.40
2018-09-10T05:12:47.108Z,6.13
2018-09-10T05:15:30.357Z,6.20
2018-09-10T05:18:12.754Z,5.60
2018-09-10T05:20:55.868Z,5.20
2018-09-10T05:23:38.741Z,6.03
2018-09-10T05:26:21.895Z,5.97
2018-09-10T05:29:05.143Z,5.73
2018-09-10T05:31:47.940Z,6.03
2018-09-10T05:34:30.724Z,6.50
2018-09-10T05:37:13.668Z,5.50
2018-09-10T05:39:56.718Z,5.70
2018-09-10T05:42:40.101Z,5.60
2018-09-10T05:45:23.060Z,6.50
2018-09-10T05:48:05.675Z,6.10
2018-09-10T05:50:48.299Z,6.07
2018-09-10T05:53:31.233Z,5.50
2018-09-10T05:56:14.192Z,6.07
2018-09-10T05:58:57.157Z,6.30
2018-09-10T06:01:40.464Z,5.50
2018-09-10T06:04:23.714Z,6.13
2018-09-10T06:07:06.300Z,6.10
2018-09-10T06:09:48.949Z,6.40
2018-09-10T06:12:31.905Z,5.97
2018-09-10T06:15:15.547Z,6.00
2018-09-10T06:17:58.760Z,5.70
2018-09-10T06:20:41.326Z,6.17
2018-09-10T06:23:23.957Z,6.17
2018-09-10T06:26:06.809Z,6.07
2018-09-10T06:28:49.659Z,6.03
2018-09-10T06:31:33.274Z,6.80
2018-09-10T06:34:17.226Z,6.30
2018-09-10T06:37:01.012Z,6.57
2018-09-10T06:39:43.784Z,7.10
2018-09-10T06:42:26.776Z,7.57
2018-09-10T06:45:09.337Z,6.30
2018-09-10T06:47:52.067Z,5.93
2018-09-10T06:50:34.863Z,6.77
2018-09-10T06:53:17.625Z,6.93
2018-09-10T06:56:00.681Z,6.47
2018-09-10T06:58:43.884Z,6.60
2018-09-10T07:01:27.169Z,7.27
2018-09-10T07:04:10.514Z,6.20
2018-09-10T07:06:53.599Z,6.70
2018-09-10T07:09:36.387Z,7.30
2018-09-10T07:12:20.329Z,7.30
2018-09-10T07:15:03.008Z,9.27
2018-09-10T07:17:46.010Z,7.00
2018-09-10T07:20:28.684Z,7.43
2018-09-10T07:23:11.521Z,7.87
2018-09-10T07:25:54.401Z,8.10
2018-09-10T07:28:37.034Z,7.73
2018-09-10T07:31:20.006Z,6.80
2018-09-10T07:34:02.671Z,7.50
2018-09-10T07:36:45.767Z,7.30
2018-09-10T07:39:28.494Z,7.43
2018-09-10T07:42:11.108Z,8.00
2018-09-10T07:44:53.960Z,7.97
2018-09-10T07:47:36.600Z,7.27
2018-09-10T07:50:19.358Z,8.40
2018-09-10T07:53:02.223Z,7.93
2018-09-10T07:55:45.344Z,7.97
2018-09-10T07:58:28.712Z,8.10
2018-09-10T08:01:11.645Z,8.10
2018-09-10T08:03:54.497Z,8.20
2018-09-10T08:06:37.442Z,6.90
2018-09-10T08:09:20.159Z,8.57
2018-09-10T08:12:02.838Z,7.70
2018-09-10T08:14:45.798Z,7.63
2018-09-10T08:17:29.301Z,8.00
2018-09-10T08:20:12.964Z,7.40
2018-09-10T08:22:55.678Z,7.17
2018-09-10T08:25:38.493Z,7.20
2018-09-10T08:28:20.934Z,7.30
2018-09-10T08:31:03.861Z,8.33
2018-09-10T08:33:47.012Z,7.23
2018-09-10T08:36:30.269Z,7.40
2018-09-10T08:39:13.943Z,7.43
2018-09-10T08:41:57.960Z,7.50
2018-09-10T08:44:42.024Z,6.73
2018-09-10T08:47:24.468Z,9.30
2018-09-10T08:50:08.038Z,7.30
2018-09-10T08:52:50.918Z,8.40
2018-09-10T08:55:34.040Z,7.23
2018-09-10T08:58:16.882Z,7.17
2018-09-10T09:00:59.899Z,8.00
2018-09-10T09:03:42.565Z,7.23
2018-09-10T09:06:25.079Z,6.73
2018-09-10T09:09:08.782Z,7.00
2018-09-10T09:11:51.843Z,7.03
2018-09-10T09:14:34.654Z,6.20
2018-09-10T09:17:17.852Z,7.10
2018-09-10T09:20:00.471Z,6.53
2018-09-10T09:22:43.367Z,7.00
2018-09-10T09:25:26.102Z,6.60
2018-09-10T09:28:09.386Z,7.67
2018-09-10T09:30:52.581Z,7.27
2018-09-10T09:33:35.610Z,9.00
2018-09-10T09:36:23.613Z,7.33
2018-09-10T09:39:12.778Z,7.00
2018-09-10T09:42:01.027Z,7.70
2018-09-10T09:44:48.789Z,7.10
2018-09-10T09:47:33.028Z,7.80
2018-09-10T09:50:16.073Z,6.97
2018-09-10T09:52:59.402Z,9.43
2018-09-10T09:55:41.967Z,8.00
2018-09-10T09:58:25.098Z,8.17
2018-09-10T10:01:12.748Z,7.97
2018-09-10T10:03:57.263Z,7.37
2018-09-10T10:06:40.156Z,9.40
2018-09-10T10:09:22.908Z,7.93
2018-09-10T10:12:05.907Z,7.43
2018-09-10T10:14:48.395Z,8.30
2018-09-10T10:17:31.329Z,6.83
2018-09-10T10:20:14.047Z,7.23
2018-09-10T10:22:56.996Z,9.40
2018-09-10T10:25:40.020Z,7.60
2018-09-10T10:28:22.475Z,7.37
2018-09-10T10:31:05.434Z,8.40
2018-09-10T10:33:48.644Z,7.53
2018-09-10T10:36:32.167Z,7.03
2018-09-10T10:39:14.909Z,7.37
2018-09-10T10:41:57.637Z,8.03
2018-09-10T10:44:40.564Z,7.90
2018-09-10T10:47:23.381Z,8.10
2018-09-10T10:50:06.497Z,7.63
2018-09-10T10:52:49.191Z,8.90
2018-09-10T10:55:31.878Z,8.30
2018-09-10T10:58:15.009Z,8.43
2018-09-10T11:00:58.269Z,8.97
2018-09-10T11:03:40.959Z,9.60
2018-09-10T11:06:23.880Z,8.93
2018-09-10T11:09:08.129Z,9.07
2018-09-10T11:11:51.332Z,9.13
2018-09-10T11:14:34.050Z,8.60
2018-09-10T11:17:17.156Z,9.70
2018-09-10T11:19:59.874Z,10.03
2018-09-10T11:22:43.401Z,9.53
2018-09-10T11:25:26.588Z,10.17
2018-09-10T11:28:09.604Z,9.30
2018-09-10T11:30:52.616Z,8.00
2018-09-10T11:33:35.294Z,8.20
2018-09-10T11:36:18.315Z,7.57
2018-09-10T11:39:01.781Z,8.33
2018-09-10T11:41:44.604Z,8.60
2018-09-10T11:44:27.331Z,8.17
2018-09-10T11:47:12.177Z,7.47
2018-09-10T11:49:55.125Z,8.20
2018-09-10T11:52:37.719Z,7.47
2018-09-10T11:55:20.447Z,8.43
2018-09-10T11:58:03.286Z,7.80
2018-09-10T12:00:45.830Z,8.00
2018-09-10T12:03:30.469Z,7.53
2018-09-10T12:06:13.483Z,7.50
2018-09-10T12:08:56.352Z,7.53
2018-09-10T12:11:38.984Z,7.27
2018-09-10T12:14:23.848Z,8.60
2018-09-10T12:17:06.827Z,7.40
2018-09-10T12:19:49.860Z,7.30
2018-09-10T12:22:32.398Z,8.10
2018-09-10T12:25:17.903Z,7.70
2018-09-10T12:28:00.644Z,8.13
2018-09-10T12:30:43.329Z,7.33
2018-09-10T12:33:26.135Z,7.87
2018-09-10T12:36:08.942Z,8.77
2018-09-10T12:38:52.244Z,7.83
2018-09-10T12:41:34.794Z,8.87
2018-09-10T12:44:17.780Z,7.87
2018-09-10T12:47:00.716Z,7.00
2018-09-10T12:49:43.295Z,8.10
2018-09-10T12:52:26.480Z,7.70
2018-09-10T12:55:09.966Z,8.93
2018-09-10T12:57:53.949Z,7.63
2018-09-10T13:00:36.877Z,8.47
2018-09-10T13:03:19.554Z,8.20
2018-09-10T13:06:02.256Z,7.70
2018-09-10T13:08:45.243Z,8.60
2018-09-10T13:11:27.907Z,7.90
2018-09-10T13:14:11.604Z,7.93
2018-09-10T13:16:54.736Z,8.67
2018-09-10T13:19:42.677Z,7.80
2018-09-10T13:22:26.014Z,7.60
2018-09-10T13:25:09.601Z,8.70
2018-09-10T13:27:53.253Z,7.93
2018-09-10T13:30:35.807Z,7.30
2018-09-10T13:33:18.640Z,7.10
2018-09-10T13:36:02.224Z,8.80
2018-09-10T13:38:45.279Z,8.53
2018-09-10T13:41:28.036Z,6.77
2018-09-10T13:44:10.625Z,8.40
2018-09-10T13:46:53.378Z,7.53
2018-09-10T13:49:36.237Z,7.47
2018-09-10T13:52:18.824Z,7.43
2018-09-10T13:55:02.382Z,7.63
2018-09-10T14:27:04.984Z,8.00
2018-09-10T14:29:48.178Z,7.80
2018-09-10T14:32:31.285Z,8.30
2018-09-10T14:35:13.865Z,7.97
2018-09-10T14:37:56.712Z,8.30
2018-09-10T14:40:39.427Z,7.30
2018-09-10T14:43:22.263Z,6.90
2018-09-10T14:46:05.523Z,7.20
2018-09-10T14:48:48.609Z,8.17
2018-09-10T14:51:31.475Z,5.80
2018-09-10T14:54:14.382Z,6.03
2018-09-10T14:56:57.322Z,5.97
2018-09-10T14:59:40.560Z,6.93
2018-09-10T15:02:22.927Z,6.80
2018-09-10T15:05:06.401Z,6.73
2018-09-10T15:07:49.538Z,6.90
2018-09-10T15:10:32.569Z,6.43
2018-09-10T15:13:15.365Z,6.30
2018-09-10T15:15:57.993Z,5.97
2018-09-10T15:18:40.971Z,6.53
2018-09-10T15:21:24.076Z,7.30
2018-09-10T15:24:06.741Z,6.40
2018-09-10T15:26:49.422Z,6.83
2018-09-10T15:29:32.168Z,7.27
2018-09-10T15:32:14.776Z,7.07
2018-09-10T15:34:57.608Z,6.03
2018-09-10T15:37:40.400Z,6.60
2018-09-10T15:40:23.143Z,6.97
2018-09-10T15:43:05.845Z,6.00
2018-09-10T15:45:48.734Z,7.10
2018-09-10T15:48:31.401Z,5.73
2018-09-10T15:51:14.283Z,5.77
2018-09-10T15:53:57.066Z,6.33
2018-09-10T15:56:39.926Z,6.13
2018-09-10T15:59:22.702Z,5.80
2018-09-10T16:02:05.361Z,4.43
2018-09-10T16:04:49.009Z,5.37
2018-09-10T16:07:31.910Z,5.67
2018-09-10T16:10:14.579Z,5.27
2018-09-10T16:12:57.261Z,6.60
2018-09-10T16:15:40.115Z,5.20
2018-09-10T16:18:22.969Z,5.57
2018-09-10T16:21:06.422Z,5.40
2018-09-10T16:23:49.296Z,5.97
2018-09-10T16:26:32.045Z,6.67
2018-09-10T16:29:14.791Z,6.87
2018-09-10T16:31:58.194Z,5.77
2018-09-10T16:34:40.472Z,9.13
2018-09-10T16:37:23.866Z,6.73
2018-09-10T16:40:06.943Z,6.80
2018-09-10T16:42:50.303Z,7.87
2018-09-10T16:45:33.008Z,7.80
2018-09-10T16:48:15.806Z,7.67
2018-09-10T16:50:58.782Z,7.33
2018-09-10T16:53:41.535Z,6.37
2018-09-10T16:56:24.504Z,5.73
2018-09-10T16:59:07.801Z,6.63
2018-09-10T17:01:50.820Z,7.80
2018-09-10T17:04:33.393Z,6.70
2018-09-10T17:07:16.392Z,6.80
2018-09-10T17:09:59.295Z,6.10
2018-09-10T17:12:42.375Z,6.03
2018-09-10T17:15:25.071Z,6.43
2018-09-10T17:18:07.689Z,6.00
2018-09-10T17:20:50.328Z,7.10
2018-09-10T17:23:34.590Z,7.20
2018-09-10T17:26:17.661Z,6.83
2018-09-10T17:29:00.657Z,6.10
2018-09-10T17:31:43.416Z,7.80
2018-09-10T17:34:26.131Z,7.27
2018-09-10T17:37:09.372Z,7.20
2018-09-10T17:39:53.285Z,6.70
2018-09-10T17:42:36.488Z,6.90
2018-09-10T17:45:18.987Z,7.13
2018-09-10T17:48:01.820Z,7.40
2018-09-10T17:50:44.800Z,6.40
2018-09-10T17:53:27.748Z,7.50
2018-09-10T17:56:10.465Z,6.47
2018-09-10T17:58:53.542Z,6.70
2018-09-10T18:01:36.241Z,6.07
2018-09-10T18:04:19.232Z,6.00
2018-09-10T18:07:02.582Z,6.00
2018-09-10T18:12:49.529Z,8.70
2018-09-10T18:15:32.412Z,8.87
2018-09-10T18:18:16.001Z,6.33
2018-09-10T18:20:58.697Z,7.97
2018-09-10T18:23:41.703Z,7.90
2018-09-10T18:26:24.533Z,6.30
2018-09-10T18:29:07.874Z,7.40
2018-09-10T18:31:52.289Z,6.77
2018-09-10T18:34:35.926Z,7.43
2018-09-10T18:37:20.106Z,8.17
2018-09-10T18:40:02.799Z,8.43
2018-09-10T18:42:45.911Z,15.10
2018-09-10T18:45:29.398Z,15.53
2018-09-10T18:48:12.748Z,10.10
2018-09-10T18:50:55.784Z,10.33
2018-09-10T18:53:38.654Z,10.60
2018-09-10T18:56:22.500Z,9.93
2018-09-10T18:59:05.197Z,10.20
2018-09-10T19:01:47.855Z,8.57
2018-09-10T19:04:30.820Z,7.57
2018-09-10T19:07:13.628Z,8.30
2018-09-10T19:09:56.322Z,7.50
2018-09-10T19:12:39.380Z,7.00
2018-09-10T19:15:22.232Z,6.50
2018-09-10T19:18:05.309Z,7.97
2018-09-10T19:20:48.346Z,6.67
2018-09-10T19:23:30.861Z,6.70
2018-09-10T19:26:14.211Z,6.83
2018-09-10T19:28:56.554Z,7.50
2018-09-10T19:31:40.473Z,7.43
2018-09-10T19:34:23.638Z,7.30
2018-09-10T19:37:06.043Z,7.67
2018-09-10T19:39:49.216Z,7.57
2018-09-10T19:42:31.830Z,7.27
2018-09-10T19:45:14.617Z,6.90
2018-09-10T19:47:57.085Z,7.70
2018-09-10T19:50:40.050Z,7.83
2018-09-10T19:53:22.847Z,7.47
2018-09-10T19:56:05.736Z,7.47
2018-09-10T19:58:49.241Z,6.93
2018-09-10T20:01:32.751Z,6.83
2018-09-10T20:04:15.384Z,7.60
2018-09-10T20:06:58.762Z,6.77
2018-09-10T20:09:42.155Z,7.03
2018-09-10T20:12:25.119Z,7.73
2018-09-10T20:15:09.706Z,7.47
2018-09-10T20:17:52.605Z,8.37
2018-09-10T20:20:35.372Z,7.97
2018-09-10T20:23:18.124Z,8.23
2018-09-10T20:26:00.859Z,7.83
2018-09-10T20:28:44.243Z,7.67
2018-09-10T20:31:27.578Z,7.27
2018-09-10T20:34:10.696Z,7.93
2018-09-10T20:36:53.038Z,7.27
2018-09-10T20:39:35.821Z,7.00
2018-09-10T20:42:18.596Z,7.30
2018-09-10T20:45:01.569Z,7.63
2018-09-10T20:47:44.462Z,7.80
2018-09-10T20:50:27.326Z,6.90
2018-09-10T20:53:09.798Z,7.53
2018-09-10T20:55:53.108Z,7.40
2018-09-10T20:58:36.185Z,7.17
2018-09-10T21:01:20.409Z,7.40
2018-09-10T21:04:03.025Z,7.77
2018-09-10T21:06:45.584Z,7.10
2018-09-10T21:09:29.017Z,7.23
2018-09-10T21:12:12.324Z,7.10
2018-09-10T21:14:54.966Z,7.10
2018-09-10T21:17:38.011Z,6.93
2018-09-10T21:20:20.726Z,7.80
2018-09-10T21:23:04.984Z,7.00
2018-09-10T21:25:48.339Z,7.37
2018-09-10T21:28:31.685Z,7.43
2018-09-10T21:31:14.699Z,7.47
2018-09-10T21:33:58.227Z,7.47
2018-09-10T21:36:40.620Z,8.80
2018-09-10T21:39:23.182Z,7.77
2018-09-10T21:42:05.923Z,7.63
2018-09-10T21:44:48.646Z,8.03
2018-09-10T21:47:31.635Z,8.00
2018-09-10T21:50:14.268Z,8.43
2018-09-10T21:52:57.359Z,8.03
2018-09-10T21:55:39.808Z,8.40
2018-09-10T21:58:22.656Z,7.17
2018-09-10T22:01:05.425Z,8.40
2018-09-10T22:03:48.150Z,7.70
2018-09-10T22:06:30.947Z,8.63
2018-09-10T22:09:13.728Z,8.30
2018-09-10T22:12:02.372Z,7.60
2018-09-10T22:14:45.484Z,8.77
2018-09-10T22:17:28.329Z,9.00
2018-09-10T22:20:10.866Z,8.80
2018-09-10T22:22:53.821Z,9.30
2018-09-10T22:25:36.663Z,8.30
2018-09-10T22:28:19.427Z,8.33
2018-09-10T22:31:02.236Z,9.90
2018-09-10T22:33:44.874Z,9.70
2018-09-10T22:36:27.727Z,10.30
2018-09-10T22:39:13.110Z,10.50
2018-09-10T22:41:55.616Z,11.17
2018-09-10T22:44:38.437Z,10.90
2018-09-10T22:47:21.168Z,11.97
2018-09-10T22:50:03.941Z,11.10
2018-09-10T22:52:46.820Z,10.93
2018-09-10T22:55:29.655Z,11.30
2018-09-10T22:58:12.394Z,11.50
2018-09-10T23:00:55.400Z,10.80
2018-09-10T23:03:38.176Z,11.70
2018-09-10T23:06:20.674Z,12.27
2018-09-10T23:09:05.265Z,11.37
2018-09-10T23:11:48.992Z,10.30
2018-09-10T23:14:32.068Z,11.97
2018-09-10T23:17:14.786Z,12.47
2018-09-10T23:19:57.932Z,11.30
2018-09-10T23:22:40.465Z,11.90
2018-09-10T23:25:23.147Z,11.00
2018-09-10T23:28:05.841Z,11.67
2018-09-10T23:30:48.619Z,11.43
2018-09-10T23:33:31.396Z,11.87
2018-09-10T23:36:14.488Z,11.33
2018-09-10T23:38:57.724Z,11.17
2018-09-10T23:41:40.538Z,12.40
2018-09-10T23:44:23.177Z,11.87
2018-09-10T23:47:05.910Z,11.80
2018-09-10T23:49:48.628Z,12.00
2018-09-10T23:52:31.390Z,11.90
2018-09-10T23:55:14.062Z,11.53
2018-09-10T23:57:56.977Z,12.03
